Terminal Aerodrome Forecast
Issued by NWS Chicago, IL

Home | Current Version | Previous Version | Text Only | Print | Product List | Glossary On
Versions: 1 2 3 4 5 6 7 8 9 10 11 12 13 14 15 16 17 18 19 20 21 22 23 24 25 26 27 28 29 30 31 32 33 34 35 36
000
FTUS43 KLOT 241400 AAB
TAFRFD
TAF AMD
KRFD 241400Z 2414/2512 00000KT 1SM BR OVC003
     FM241600 27004KT 3SM BR BKN005
     FM241800 22007KT P6SM SCT025 SCT250
     FM242200 21006KT P6SM BKN080
     FM250300 20007KT 3SM BR BKN015
     FM250600 24004KT 1SM BR SCT005=

USA.gov is the U.S. government's official web portal to all federal, state and local government web resources and services.